Terminal Aerodrome Forecast
Issued by NWS

Home | Current Version | Previous Version | Text Only | Print | Product List | Glossary On
Versions: 1 2 3 4 5 6 7 8 9 10 11 12 13 14 15 16 17 18 19 20 21 22 23 24 25 26 27
000
FTUS46 KPDT 251400 AAB
TAFYKM
TAF AMD
KYKM 251451Z 2515/2612 00000KT 1/4SM FG VV002
      TEMPO 2515/2517 1/2SM FG OVC002
     FM251700 00000KT 1SM BR OVC002
      TEMPO 2517/2518 2SM BR OVC003
     FM251800 00000KT 2SM BR OVC003
      TEMPO 2519/2520 VRB03KT 4SM BR BKN004
     FM252000 VRB03KT P6SM SCT004 SCT150 SCT250=

USA.gov is the U.S. government's official web portal to all federal, state and local government web resources and services.